sensor_id;sensor_type;location;lat;lon;timestamp;temperature;humidity
64987;DHT22;67903;52.108;9.358;2023-05-19T00:00:58;8.60;68.00
64987;DHT22;67903;52.108;9.358;2023-05-19T00:03:52;8.50;68.40
64987;DHT22;67903;52.108;9.358;2023-05-19T00:06:40;8.40;68.70
64987;DHT22;67903;52.108;9.358;2023-05-19T00:09:27;8.40;69.00
64987;DHT22;67903;52.108;9.358;2023-05-19T00:12:15;8.30;69.40
64987;DHT22;67903;52.108;9.358;2023-05-19T00:15:02;8.20;69.60
64987;DHT22;67903;52.108;9.358;2023-05-19T00:17:50;8.20;69.70
64987;DHT22;67903;52.108;9.358;2023-05-19T00:20:38;8.30;69.60
64987;DHT22;67903;52.108;9.358;2023-05-19T00:23:25;8.30;69.80
64987;DHT22;67903;52.108;9.358;2023-05-19T00:26:12;8.30;69.80
64987;DHT22;67903;52.108;9.358;2023-05-19T00:29:10;8.30;69.80
64987;DHT22;67903;52.108;9.358;2023-05-19T00:31:57;8.30;69.70
64987;DHT22;67903;52.108;9.358;2023-05-19T00:34:44;8.30;69.80
64987;DHT22;67903;52.108;9.358;2023-05-19T00:37:33;8.20;69.90
64987;DHT22;67903;52.108;9.358;2023-05-19T00:40:21;8.20;70.00
64987;DHT22;67903;52.108;9.358;2023-05-19T00:43:09;8.20;70.10
64987;DHT22;67903;52.108;9.358;2023-05-19T00:45:57;8.30;69.70
64987;DHT22;67903;52.108;9.358;2023-05-19T00:48:44;8.40;69.30
64987;DHT22;67903;52.108;9.358;2023-05-19T00:51:31;8.40;69.10
64987;DHT22;67903;52.108;9.358;2023-05-19T00:54:19;8.40;69.30
64987;DHT22;67903;52.108;9.358;2023-05-19T00:57:07;8.40;69.20
64987;DHT22;67903;52.108;9.358;2023-05-19T00:59:54;8.20;69.80
64987;DHT22;67903;52.108;9.358;2023-05-19T01:02:42;8.10;70.10
64987;DHT22;67903;52.108;9.358;2023-05-19T01:05:29;8.10;70.20
64987;DHT22;67903;52.108;9.358;2023-05-19T01:08:17;8.10;70.30
64987;DHT22;67903;52.108;9.358;2023-05-19T01:11:04;8.10;70.50
64987;DHT22;67903;52.108;9.358;2023-05-19T01:13:53;8.20;70.20
64987;DHT22;67903;52.108;9.358;2023-05-19T01:26:47;8.10;71.10
64987;DHT22;67903;52.108;9.358;2023-05-19T01:32:27;8.00;72.30
64987;DHT22;67903;52.108;9.358;2023-05-19T01:35:16;8.10;72.10
64987;DHT22;67903;52.108;9.358;2023-05-19T01:38:07;8.20;72.00
64987;DHT22;67903;52.108;9.358;2023-05-19T01:40:55;8.10;72.10
64987;DHT22;67903;52.108;9.358;2023-05-19T01:43:43;8.00;72.20
64987;DHT22;67903;52.108;9.358;2023-05-19T01:46:31;8.00;72.20
64987;DHT22;67903;52.108;9.358;2023-05-19T01:49:18;8.00;72.00
64987;DHT22;67903;52.108;9.358;2023-05-19T01:52:06;7.80;72.20
64987;DHT22;67903;52.108;9.358;2023-05-19T01:54:53;7.60;72.60
64987;DHT22;67903;52.108;9.358;2023-05-19T02:06:46;7.30;73.40
64987;DHT22;67903;52.108;9.358;2023-05-19T02:09:53;7.20;73.20
64987;DHT22;67903;52.108;9.358;2023-05-19T02:12:45;7.20;72.60
64987;DHT22;67903;52.108;9.358;2023-05-19T02:15:39;7.20;72.20
64987;DHT22;67903;52.108;9.358;2023-05-19T02:18:28;7.20;72.40
64987;DHT22;67903;52.108;9.358;2023-05-19T02:21:15;7.20;72.20
64987;DHT22;67903;52.108;9.358;2023-05-19T02:24:04;7.20;72.40
64987;DHT22;67903;52.108;9.358;2023-05-19T02:26:53;7.20;72.40
64987;DHT22;67903;52.108;9.358;2023-05-19T02:29:40;7.10;72.60
64987;DHT22;67903;52.108;9.358;2023-05-19T02:32:27;7.10;72.90
64987;DHT22;67903;52.108;9.358;2023-05-19T02:35:14;7.20;72.60
64987;DHT22;67903;52.108;9.358;2023-05-19T02:38:02;7.30;72.00
64987;DHT22;67903;52.108;9.358;2023-05-19T02:40:50;7.40;71.90
64987;DHT22;67903;52.108;9.358;2023-05-19T02:43:38;7.30;72.00
64987;DHT22;67903;52.108;9.358;2023-05-19T02:46:25;7.40;72.10
64987;DHT22;67903;52.108;9.358;2023-05-19T02:49:13;7.50;72.20
64987;DHT22;67903;52.108;9.358;2023-05-19T02:52:01;7.50;72.10
64987;DHT22;67903;52.108;9.358;2023-05-19T02:54:49;7.60;71.90
64987;DHT22;67903;52.108;9.358;2023-05-19T02:57:36;7.60;72.20
64987;DHT22;67903;52.108;9.358;2023-05-19T03:00:24;7.60;72.80
64987;DHT22;67903;52.108;9.358;2023-05-19T03:03:11;7.50;73.10
64987;DHT22;67903;52.108;9.358;2023-05-19T03:05:59;7.60;73.10
64987;DHT22;67903;52.108;9.358;2023-05-19T03:08:48;7.60;73.10
64987;DHT22;67903;52.108;9.358;2023-05-19T03:11:35;7.60;73.20
64987;DHT22;67903;52.108;9.358;2023-05-19T03:14:22;7.70;72.90
64987;DHT22;67903;52.108;9.358;2023-05-19T03:17:10;7.60;72.80
64987;DHT22;67903;52.108;9.358;2023-05-19T03:19:58;7.60;72.40
64987;DHT22;67903;52.108;9.358;2023-05-19T03:22:46;7.60;72.10
64987;DHT22;67903;52.108;9.358;2023-05-19T03:25:33;7.60;71.60
64987;DHT22;67903;52.108;9.358;2023-05-19T03:28:20;7.60;71.40
64987;DHT22;67903;52.108;9.358;2023-05-19T03:31:09;7.50;71.50
64987;DHT22;67903;52.108;9.358;2023-05-19T03:33:58;7.50;71.20
64987;DHT22;67903;52.108;9.358;2023-05-19T03:36:45;7.50;70.90
64987;DHT22;67903;52.108;9.358;2023-05-19T03:39:35;7.50;70.80
64987;DHT22;67903;52.108;9.358;2023-05-19T03:42:22;7.50;70.80
64987;DHT22;67903;52.108;9.358;2023-05-19T03:45:10;7.50;70.40
64987;DHT22;67903;52.108;9.358;2023-05-19T03:47:59;7.50;70.40
64987;DHT22;67903;52.108;9.358;2023-05-19T03:51:05;7.50;70.20
64987;DHT22;67903;52.108;9.358;2023-05-19T03:53:53;7.50;70.20
64987;DHT22;67903;52.108;9.358;2023-05-19T03:56:41;7.50;70.10
64987;DHT22;67903;52.108;9.358;2023-05-19T03:59:29;7.50;70.70
64987;DHT22;67903;52.108;9.358;2023-05-19T04:02:17;7.50;71.30
64987;DHT22;67903;52.108;9.358;2023-05-19T04:05:07;7.40;71.70
64987;DHT22;67903;52.108;9.358;2023-05-19T04:07:56;7.40;71.60
64987;DHT22;67903;52.108;9.358;2023-05-19T04:10:43;7.30;71.70
64987;DHT22;67903;52.108;9.358;2023-05-19T04:13:33;7.50;71.00
64987;DHT22;67903;52.108;9.358;2023-05-19T04:16:20;7.50;70.80
64987;DHT22;67903;52.108;9.358;2023-05-19T04:19:07;7.40;71.20
64987;DHT22;67903;52.108;9.358;2023-05-19T04:21:55;7.30;72.00
64987;DHT22;67903;52.108;9.358;2023-05-19T04:24:42;7.20;72.50
64987;DHT22;67903;52.108;9.358;2023-05-19T04:27:29;7.20;72.70
64987;DHT22;67903;52.108;9.358;2023-05-19T04:30:18;7.20;73.00
64987;DHT22;67903;52.108;9.358;2023-05-19T04:33:09;7.00;73.80
64987;DHT22;67903;52.108;9.358;2023-05-19T04:35:56;7.00;74.30
64987;DHT22;67903;52.108;9.358;2023-05-19T04:38:44;7.00;74.30
64987;DHT22;67903;52.108;9.358;2023-05-19T04:41:33;7.00;74.70
64987;DHT22;67903;52.108;9.358;2023-05-19T04:44:23;7.00;74.50
64987;DHT22;67903;52.108;9.358;2023-05-19T04:47:11;7.00;74.40
64987;DHT22;67903;52.108;9.358;2023-05-19T04:49:59;6.90;74.20
64987;DHT22;67903;52.108;9.358;2023-05-19T04:52:46;6.90;74.00
64987;DHT22;67903;52.108;9.358;2023-05-19T04:55:34;6.90;73.70
64987;DHT22;67903;52.108;9.358;2023-05-19T04:58:22;6.90;73.90
64987;DHT22;67903;52.108;9.358;2023-05-19T05:01:12;6.90;73.40
64987;DHT22;67903;52.108;9.358;2023-05-19T05:04:01;6.90;73.60
64987;DHT22;67903;52.108;9.358;2023-05-19T05:06:50;7.00;73.60
64987;DHT22;67903;52.108;9.358;2023-05-19T05:09:38;7.00;73.40
64987;DHT22;67903;52.108;9.358;2023-05-19T05:12:26;7.10;73.40
64987;DHT22;67903;52.108;9.358;2023-05-19T05:15:14;7.20;73.20
64987;DHT22;67903;52.108;9.358;2023-05-19T05:18:07;7.20;73.00
64987;DHT22;67903;52.108;9.358;2023-05-19T05:20:55;7.30;72.80
64987;DHT22;67903;52.108;9.358;2023-05-19T05:23:43;7.40;72.50
64987;DHT22;67903;52.108;9.358;2023-05-19T05:26:33;7.50;72.30
64987;DHT22;67903;52.108;9.358;2023-05-19T05:29:21;7.60;71.70
64987;DHT22;67903;52.108;9.358;2023-05-19T05:32:08;7.80;71.20
64987;DHT22;67903;52.108;9.358;2023-05-19T05:34:57;7.90;70.50
64987;DHT22;67903;52.108;9.358;2023-05-19T05:37:45;8.00;70.20
64987;DHT22;67903;52.108;9.358;2023-05-19T05:40:32;8.10;70.00
64987;DHT22;67903;52.108;9.358;2023-05-19T05:43:19;8.20;69.70
64987;DHT22;67903;52.108;9.358;2023-05-19T05:46:12;8.30;69.60
64987;DHT22;67903;52.108;9.358;2023-05-19T05:49:00;8.50;69.20
64987;DHT22;67903;52.108;9.358;2023-05-19T05:51:48;8.60;69.00
64987;DHT22;67903;52.108;9.358;2023-05-19T05:54:58;8.60;69.00
64987;DHT22;67903;52.108;9.358;2023-05-19T05:57:47;8.70;68.90
64987;DHT22;67903;52.108;9.358;2023-05-19T06:00:37;8.80;68.70
64987;DHT22;67903;52.108;9.358;2023-05-19T06:03:24;8.80;68.50
64987;DHT22;67903;52.108;9.358;2023-05-19T06:06:12;9.00;68.00
64987;DHT22;67903;52.108;9.358;2023-05-19T06:09:00;9.00;67.90
64987;DHT22;67903;52.108;9.358;2023-05-19T06:11:48;9.00;67.90
64987;DHT22;67903;52.108;9.358;2023-05-19T06:14:35;9.10;68.00
64987;DHT22;67903;52.108;9.358;2023-05-19T06:17:33;9.20;67.80
64987;DHT22;67903;52.108;9.358;2023-05-19T06:20:21;9.20;67.50
64987;DHT22;67903;52.108;9.358;2023-05-19T06:23:09;9.30;67.20
64987;DHT22;67903;52.108;9.358;2023-05-19T06:25:56;9.50;66.70
64987;DHT22;67903;52.108;9.358;2023-05-19T06:28:44;9.50;66.20
64987;DHT22;67903;52.108;9.358;2023-05-19T06:31:31;9.60;66.00
64987;DHT22;67903;52.108;9.358;2023-05-19T06:34:28;9.70;65.80
64987;DHT22;67903;52.108;9.358;2023-05-19T06:37:15;9.70;65.80
64987;DHT22;67903;52.108;9.358;2023-05-19T06:40:06;9.90;65.30
64987;DHT22;67903;52.108;9.358;2023-05-19T06:42:56;10.00;65.20
64987;DHT22;67903;52.108;9.358;2023-05-19T06:46:12;10.00;65.00
64987;DHT22;67903;52.108;9.358;2023-05-19T06:49:00;10.10;65.10
64987;DHT22;67903;52.108;9.358;2023-05-19T06:51:51;10.20;64.80
64987;DHT22;67903;52.108;9.358;2023-05-19T06:54:40;10.30;64.50
64987;DHT22;67903;52.108;9.358;2023-05-19T06:57:28;10.50;64.10
64987;DHT22;67903;52.108;9.358;2023-05-19T07:00:16;10.60;63.70
64987;DHT22;67903;52.108;9.358;2023-05-19T07:03:09;10.90;62.80
64987;DHT22;67903;52.108;9.358;2023-05-19T07:05:57;10.90;62.70
64987;DHT22;67903;52.108;9.358;2023-05-19T07:08:44;11.00;62.50
64987;DHT22;67903;52.108;9.358;2023-05-19T07:11:32;11.10;62.40
64987;DHT22;67903;52.108;9.358;2023-05-19T07:14:21;11.10;61.90
64987;DHT22;67903;52.108;9.358;2023-05-19T07:17:08;11.20;61.70
64987;DHT22;67903;52.108;9.358;2023-05-19T07:20:00;11.30;61.50
64987;DHT22;67903;52.108;9.358;2023-05-19T07:22:47;11.50;61.50
64987;DHT22;67903;52.108;9.358;2023-05-19T07:25:35;11.80;61.30
64987;DHT22;67903;52.108;9.358;2023-05-19T07:28:22;11.90;60.80
64987;DHT22;67903;52.108;9.358;2023-05-19T07:31:09;12.00;60.70
64987;DHT22;67903;52.108;9.358;2023-05-19T07:33:57;12.00;60.10
64987;DHT22;67903;52.108;9.358;2023-05-19T07:36:44;12.00;60.40
64987;DHT22;67903;52.108;9.358;2023-05-19T07:39:33;12.10;60.50
64987;DHT22;67903;52.108;9.358;2023-05-19T07:42:20;12.30;60.40
64987;DHT22;67903;52.108;9.358;2023-05-19T07:45:08;12.50;60.10
64987;DHT22;67903;52.108;9.358;2023-05-19T07:47:55;12.80;59.50
64987;DHT22;67903;52.108;9.358;2023-05-19T07:50:42;12.90;59.30
64987;DHT22;67903;52.108;9.358;2023-05-19T07:53:29;13.10;58.80
64987;DHT22;67903;52.108;9.358;2023-05-19T07:56:16;13.10;58.40
64987;DHT22;67903;52.108;9.358;2023-05-19T07:59:04;13.20;58.10
64987;DHT22;67903;52.108;9.358;2023-05-19T08:01:51;13.30;57.20
64987;DHT22;67903;52.108;9.358;2023-05-19T08:04:38;13.40;57.30
64987;DHT22;67903;52.108;9.358;2023-05-19T08:07:25;13.50;57.50
64987;DHT22;67903;52.108;9.358;2023-05-19T08:10:12;13.70;56.00
64987;DHT22;67903;52.108;9.358;2023-05-19T08:12:59;13.80;56.20
64987;DHT22;67903;52.108;9.358;2023-05-19T08:15:47;13.90;56.30
64987;DHT22;67903;52.108;9.358;2023-05-19T08:18:34;13.90;56.40
64987;DHT22;67903;52.108;9.358;2023-05-19T08:21:21;14.00;56.00
64987;DHT22;67903;52.108;9.358;2023-05-19T08:24:08;14.00;55.00
64987;DHT22;67903;52.108;9.358;2023-05-19T08:26:55;14.10;54.60
64987;DHT22;67903;52.108;9.358;2023-05-19T08:29:42;14.10;54.70
64987;DHT22;67903;52.108;9.358;2023-05-19T08:32:29;14.20;54.30
64987;DHT22;67903;52.108;9.358;2023-05-19T08:35:17;14.30;54.60
64987;DHT22;67903;52.108;9.358;2023-05-19T08:38:04;14.30;53.70
64987;DHT22;67903;52.108;9.358;2023-05-19T08:40:51;14.40;54.20
64987;DHT22;67903;52.108;9.358;2023-05-19T08:43:38;14.50;53.60
64987;DHT22;67903;52.108;9.358;2023-05-19T08:46:25;14.50;53.60
64987;DHT22;67903;52.108;9.358;2023-05-19T08:49:13;14.40;54.10
64987;DHT22;67903;52.108;9.358;2023-05-19T08:55:08;14.60;54.30
64987;DHT22;67903;52.108;9.358;2023-05-19T08:58:00;14.60;53.90
64987;DHT22;67903;52.108;9.358;2023-05-19T09:00:49;14.60;54.20
64987;DHT22;67903;52.108;9.358;2023-05-19T09:03:38;14.80;54.50
64987;DHT22;67903;52.108;9.358;2023-05-19T09:06:26;14.70;53.40
64987;DHT22;67903;52.108;9.358;2023-05-19T09:09:14;14.90;53.50
64987;DHT22;67903;52.108;9.358;2023-05-19T09:12:02;15.00;54.30
64987;DHT22;67903;52.108;9.358;2023-05-19T09:14:49;15.00;54.30
64987;DHT22;67903;52.108;9.358;2023-05-19T09:17:36;15.00;54.60
64987;DHT22;67903;52.108;9.358;2023-05-19T09:20:24;15.00;53.70
64987;DHT22;67903;52.108;9.358;2023-05-19T09:23:14;15.20;53.20
64987;DHT22;67903;52.108;9.358;2023-05-19T09:26:03;15.30;53.40
64987;DHT22;67903;52.108;9.358;2023-05-19T09:28:57;15.30;53.30
64987;DHT22;67903;52.108;9.358;2023-05-19T09:31:53;15.50;52.40
64987;DHT22;67903;52.108;9.358;2023-05-19T09:34:42;15.60;52.70
64987;DHT22;67903;52.108;9.358;2023-05-19T09:37:29;15.50;51.90
64987;DHT22;67903;52.108;9.358;2023-05-19T09:40:18;15.60;51.90
64987;DHT22;67903;52.108;9.358;2023-05-19T09:43:07;15.60;51.50
64987;DHT22;67903;52.108;9.358;2023-05-19T09:45:58;15.80;51.20
64987;DHT22;67903;52.108;9.358;2023-05-19T09:48:46;15.60;50.00
64987;DHT22;67903;52.108;9.358;2023-05-19T09:51:36;15.80;50.40
64987;DHT22;67903;52.108;9.358;2023-05-19T09:54:25;15.80;49.80
64987;DHT22;67903;52.108;9.358;2023-05-19T09:57:24;16.00;50.00
64987;DHT22;67903;52.108;9.358;2023-05-19T10:00:14;16.20;49.60
64987;DHT22;67903;52.108;9.358;2023-05-19T10:03:03;16.20;49.70
64987;DHT22;67903;52.108;9.358;2023-05-19T10:05:52;16.20;48.30
64987;DHT22;67903;52.108;9.358;2023-05-19T10:08:39;16.30;48.40
64987;DHT22;67903;52.108;9.358;2023-05-19T10:11:29;16.40;48.20
64987;DHT22;67903;52.108;9.358;2023-05-19T10:14:18;16.40;48.80
64987;DHT22;67903;52.108;9.358;2023-05-19T10:17:06;16.40;48.00
64987;DHT22;67903;52.108;9.358;2023-05-19T10:19:54;16.50;48.30
64987;DHT22;67903;52.108;9.358;2023-05-19T10:22:42;16.60;48.50
64987;DHT22;67903;52.108;9.358;2023-05-19T10:25:31;16.90;48.10
64987;DHT22;67903;52.108;9.358;2023-05-19T10:28:21;16.90;47.40
64987;DHT22;67903;52.108;9.358;2023-05-19T10:31:16;16.80;47.90
64987;DHT22;67903;52.108;9.358;2023-05-19T10:37:34;17.00;47.40
64987;DHT22;67903;52.108;9.358;2023-05-19T10:40:27;17.40;47.20
64987;DHT22;67903;52.108;9.358;2023-05-19T10:43:53;17.30;46.10
64987;DHT22;67903;52.108;9.358;2023-05-19T10:46:39;17.10;46.90
64987;DHT22;67903;52.108;9.358;2023-05-19T10:49:26;17.30;47.50
64987;DHT22;67903;52.108;9.358;2023-05-19T10:52:20;17.50;46.30
64987;DHT22;67903;52.108;9.358;2023-05-19T10:55:12;17.50;46.40
64987;DHT22;67903;52.108;9.358;2023-05-19T10:58:03;17.50;46.50
64987;DHT22;67903;52.108;9.358;2023-05-19T11:00:59;17.40;45.90
64987;DHT22;67903;52.108;9.358;2023-05-19T11:03:56;17.30;46.10
64987;DHT22;67903;52.108;9.358;2023-05-19T11:06:50;17.40;46.30
64987;DHT22;67903;52.108;9.358;2023-05-19T11:09:39;17.60;45.90
64987;DHT22;67903;52.108;9.358;2023-05-19T11:12:27;17.60;45.00
64987;DHT22;67903;52.108;9.358;2023-05-19T11:15:14;17.60;45.10
64987;DHT22;67903;52.108;9.358;2023-05-19T11:18:03;17.90;44.50
64987;DHT22;67903;52.108;9.358;2023-05-19T11:20:54;18.00;44.60
64987;DHT22;67903;52.108;9.358;2023-05-19T11:23:44;18.00;45.00
64987;DHT22;67903;52.108;9.358;2023-05-19T11:26:41;17.80;44.20
64987;DHT22;67903;52.108;9.358;2023-05-19T11:29:30;17.90;44.00
64987;DHT22;67903;52.108;9.358;2023-05-19T11:32:21;17.90;43.90
64987;DHT22;67903;52.108;9.358;2023-05-19T11:35:11;17.90;44.40
64987;DHT22;67903;52.108;9.358;2023-05-19T11:38:00;18.00;44.00
64987;DHT22;67903;52.108;9.358;2023-05-19T11:40:48;18.30;44.10
64987;DHT22;67903;52.108;9.358;2023-05-19T11:43:35;18.20;43.30
64987;DHT22;67903;52.108;9.358;2023-05-19T11:46:22;18.40;43.50
64987;DHT22;67903;52.108;9.358;2023-05-19T11:49:10;18.10;41.90
64987;DHT22;67903;52.108;9.358;2023-05-19T11:51:59;18.10;41.30
64987;DHT22;67903;52.108;9.358;2023-05-19T11:54:47;18.00;41.30
64987;DHT22;67903;52.108;9.358;2023-05-19T11:57:34;18.00;41.10
64987;DHT22;67903;52.108;9.358;2023-05-19T12:00:22;18.50;41.40
64987;DHT22;67903;52.108;9.358;2023-05-19T12:03:09;18.90;40.80
64987;DHT22;67903;52.108;9.358;2023-05-19T12:05:56;19.10;40.40
64987;DHT22;67903;52.108;9.358;2023-05-19T12:08:44;19.30;40.30
64987;DHT22;67903;52.108;9.358;2023-05-19T12:11:31;19.50;40.00
64987;DHT22;67903;52.108;9.358;2023-05-19T12:14:18;19.60;39.80
64987;DHT22;67903;52.108;9.358;2023-05-19T12:17:10;19.90;39.20
64987;DHT22;67903;52.108;9.358;2023-05-19T12:19:58;20.00;38.40
64987;DHT22;67903;52.108;9.358;2023-05-19T12:22:47;20.30;39.70
64987;DHT22;67903;52.108;9.358;2023-05-19T12:25:34;20.20;40.90
64987;DHT22;67903;52.108;9.358;2023-05-19T12:28:22;19.80;40.50
64987;DHT22;67903;52.108;9.358;2023-05-19T12:31:10;19.40;41.00
64987;DHT22;67903;52.108;9.358;2023-05-19T12:33:57;19.40;41.10
64987;DHT22;67903;52.108;9.358;2023-05-19T12:36:45;19.10;41.80
64987;DHT22;67903;52.108;9.358;2023-05-19T12:39:32;18.70;42.20
64987;DHT22;67903;52.108;9.358;2023-05-19T12:42:19;18.60;42.60
64987;DHT22;67903;52.108;9.358;2023-05-19T12:45:07;18.70;41.30
64987;DHT22;67903;52.108;9.358;2023-05-19T12:47:54;18.80;41.20
64987;DHT22;67903;52.108;9.358;2023-05-19T12:50:43;18.90;41.00
64987;DHT22;67903;52.108;9.358;2023-05-19T12:53:35;19.40;41.10
64987;DHT22;67903;52.108;9.358;2023-05-19T12:56:24;19.50;40.70
64987;DHT22;67903;52.108;9.358;2023-05-19T12:59:20;19.40;40.90
64987;DHT22;67903;52.108;9.358;2023-05-19T13:02:24;19.50;40.70
64987;DHT22;67903;52.108;9.358;2023-05-19T13:05:11;19.20;40.20
64987;DHT22;67903;52.108;9.358;2023-05-19T13:08:07;19.10;40.60
64987;DHT22;67903;52.108;9.358;2023-05-19T13:10:54;18.90;40.30
64987;DHT22;67903;52.108;9.358;2023-05-19T13:13:41;19.10;40.60
64987;DHT22;67903;52.108;9.358;2023-05-19T13:16:29;19.50;39.70
64987;DHT22;67903;52.108;9.358;2023-05-19T13:19:18;19.70;39.20
64987;DHT22;67903;52.108;9.358;2023-05-19T13:22:12;19.70;38.70
64987;DHT22;67903;52.108;9.358;2023-05-19T13:24:59;20.00;38.80
64987;DHT22;67903;52.108;9.358;2023-05-19T13:27:48;19.80;38.50
64987;DHT22;67903;52.108;9.358;2023-05-19T13:30:36;20.30;38.40
64987;DHT22;67903;52.108;9.358;2023-05-19T13:33:24;20.70;38.10
64987;DHT22;67903;52.108;9.358;2023-05-19T13:36:12;21.10;38.00
64987;DHT22;67903;52.108;9.358;2023-05-19T13:38:59;21.40;37.80
64987;DHT22;67903;52.108;9.358;2023-05-19T13:41:46;21.10;37.30
64987;DHT22;67903;52.108;9.358;2023-05-19T13:44:34;20.90;37.60
64987;DHT22;67903;52.108;9.358;2023-05-19T13:47:22;20.40;38.20
64987;DHT22;67903;52.108;9.358;2023-05-19T13:50:09;20.50;38.20
64987;DHT22;67903;52.108;9.358;2023-05-19T13:52:58;20.60;38.30
64987;DHT22;67903;52.108;9.358;2023-05-19T13:55:45;20.30;38.30
64987;DHT22;67903;52.108;9.358;2023-05-19T13:58:32;19.70;39.50
64987;DHT22;67903;52.108;9.358;2023-05-19T14:01:20;19.70;39.80
64987;DHT22;67903;52.108;9.358;2023-05-19T14:04:07;19.50;39.30
64987;DHT22;67903;52.108;9.358;2023-05-19T14:06:54;19.30;39.60
64987;DHT22;67903;52.108;9.358;2023-05-19T14:09:41;19.50;39.70
64987;DHT22;67903;52.108;9.358;2023-05-19T14:12:28;20.70;38.30
64987;DHT22;67903;52.108;9.358;2023-05-19T14:15:29;22.10;36.80
64987;DHT22;67903;52.108;9.358;2023-05-19T14:18:18;23.50;35.00
64987;DHT22;67903;52.108;9.358;2023-05-19T14:21:05;23.40;35.00
64987;DHT22;67903;52.108;9.358;2023-05-19T14:23:52;22.80;35.50
64987;DHT22;67903;52.108;9.358;2023-05-19T14:26:39;22.50;35.80
64987;DHT22;67903;52.108;9.358;2023-05-19T14:29:27;23.20;35.60
64987;DHT22;67903;52.108;9.358;2023-05-19T14:32:16;24.40;34.30
64987;DHT22;67903;52.108;9.358;2023-05-19T14:35:04;25.10;33.10
64987;DHT22;67903;52.108;9.358;2023-05-19T14:37:52;25.00;33.20
64987;DHT22;67903;52.108;9.358;2023-05-19T14:40:39;23.40;34.80
64987;DHT22;67903;52.108;9.358;2023-05-19T14:43:27;22.80;35.20
64987;DHT22;67903;52.108;9.358;2023-05-19T14:46:14;21.70;36.40
64987;DHT22;67903;52.108;9.358;2023-05-19T14:49:01;21.60;36.70
64987;DHT22;67903;52.108;9.358;2023-05-19T14:51:49;22.70;35.10
64987;DHT22;67903;52.108;9.358;2023-05-19T14:54:36;24.20;33.70
64987;DHT22;67903;52.108;9.358;2023-05-19T14:57:23;24.40;33.50
64987;DHT22;67903;52.108;9.358;2023-05-19T15:00:11;25.40;32.80
64987;DHT22;67903;52.108;9.358;2023-05-19T15:02:58;26.10;32.10
64987;DHT22;67903;52.108;9.358;2023-05-19T15:05:45;26.40;31.50
64987;DHT22;67903;52.108;9.358;2023-05-19T15:08:32;25.60;32.30
64987;DHT22;67903;52.108;9.358;2023-05-19T15:11:19;25.50;32.40
64987;DHT22;67903;52.108;9.358;2023-05-19T15:14:08;24.60;33.00
64987;DHT22;67903;52.108;9.358;2023-05-19T15:16:55;23.50;34.00
64987;DHT22;67903;52.108;9.358;2023-05-19T15:19:42;22.60;35.20
64987;DHT22;67903;52.108;9.358;2023-05-19T15:22:30;21.70;36.40
64987;DHT22;67903;52.108;9.358;2023-05-19T15:25:17;21.70;36.50
64987;DHT22;67903;52.108;9.358;2023-05-19T15:28:04;21.80;36.80
64987;DHT22;67903;52.108;9.358;2023-05-19T15:30:51;23.00;35.20
64987;DHT22;67903;52.108;9.358;2023-05-19T15:33:39;24.20;33.80
64987;DHT22;67903;52.108;9.358;2023-05-19T15:36:26;25.40;32.70
64987;DHT22;67903;52.108;9.358;2023-05-19T15:39:13;24.80;32.60
64987;DHT22;67903;52.108;9.358;2023-05-19T15:42:00;23.50;34.30
64987;DHT22;67903;52.108;9.358;2023-05-19T15:44:47;22.70;35.30
64987;DHT22;67903;52.108;9.358;2023-05-19T15:47:34;21.90;36.30
64987;DHT22;67903;52.108;9.358;2023-05-19T15:50:22;21.60;37.10
64987;DHT22;67903;52.108;9.358;2023-05-19T15:53:09;21.60;36.70
64987;DHT22;67903;52.108;9.358;2023-05-19T15:55:56;21.30;36.60
64987;DHT22;67903;52.108;9.358;2023-05-19T15:58:44;21.50;36.70
64987;DHT22;67903;52.108;9.358;2023-05-19T16:01:31;22.60;35.70
64987;DHT22;67903;52.108;9.358;2023-05-19T16:04:18;22.80;35.10
64987;DHT22;67903;52.108;9.358;2023-05-19T16:07:05;22.50;35.30
64987;DHT22;67903;52.108;9.358;2023-05-19T16:09:52;22.10;35.60
64987;DHT22;67903;52.108;9.358;2023-05-19T16:12:39;21.90;36.20
64987;DHT22;67903;52.108;9.358;2023-05-19T16:15:27;21.40;36.60
64987;DHT22;67903;52.108;9.358;2023-05-19T16:18:14;21.00;37.30
64987;DHT22;67903;52.108;9.358;2023-05-19T16:21:04;20.90;37.90
64987;DHT22;67903;52.108;9.358;2023-05-19T16:23:51;20.60;38.60
64987;DHT22;67903;52.108;9.358;2023-05-19T16:26:38;20.50;38.90
64987;DHT22;67903;52.108;9.358;2023-05-19T16:29:25;20.30;39.10
64987;DHT22;67903;52.108;9.358;2023-05-19T16:32:12;20.40;39.10
64987;DHT22;67903;52.108;9.358;2023-05-19T16:34:59;20.00;39.70
64987;DHT22;67903;52.108;9.358;2023-05-19T16:37:47;20.30;39.10
64987;DHT22;67903;52.108;9.358;2023-05-19T16:40:34;20.20;39.50
64987;DHT22;67903;52.108;9.358;2023-05-19T16:43:21;20.30;39.60
64987;DHT22;67903;52.108;9.358;2023-05-19T16:46:09;20.00;39.60
64987;DHT22;67903;52.108;9.358;2023-05-19T16:48:58;19.70;40.00
64987;DHT22;67903;52.108;9.358;2023-05-19T16:51:45;19.70;40.20
64987;DHT22;67903;52.108;9.358;2023-05-19T16:54:34;19.90;40.00
64987;DHT22;67903;52.108;9.358;2023-05-19T16:57:22;20.00;40.20
64987;DHT22;67903;52.108;9.358;2023-05-19T17:00:09;20.00;40.20
64987;DHT22;67903;52.108;9.358;2023-05-19T17:02:57;19.90;40.20
64987;DHT22;67903;52.108;9.358;2023-05-19T17:05:44;19.50;40.30
64987;DHT22;67903;52.108;9.358;2023-05-19T17:08:32;19.50;40.40
64987;DHT22;67903;52.108;9.358;2023-05-19T17:11:19;19.50;40.10
64987;DHT22;67903;52.108;9.358;2023-05-19T17:14:07;19.30;40.20
64987;DHT22;67903;52.108;9.358;2023-05-19T17:16:55;19.10;40.50
64987;DHT22;67903;52.108;9.358;2023-05-19T17:19:42;19.10;40.70
64987;DHT22;67903;52.108;9.358;2023-05-19T17:22:29;19.20;40.80
64987;DHT22;67903;52.108;9.358;2023-05-19T17:25:16;19.20;41.10
64987;DHT22;67903;52.108;9.358;2023-05-19T17:28:03;19.10;41.20
64987;DHT22;67903;52.108;9.358;2023-05-19T17:30:51;19.20;41.10
64987;DHT22;67903;52.108;9.358;2023-05-19T17:33:38;19.00;41.50
64987;DHT22;67903;52.108;9.358;2023-05-19T17:36:25;18.80;42.00
64987;DHT22;67903;52.108;9.358;2023-05-19T17:39:13;18.80;42.00
64987;DHT22;67903;52.108;9.358;2023-05-19T17:42:00;18.80;42.00
64987;DHT22;67903;52.108;9.358;2023-05-19T17:44:47;18.80;42.00
64987;DHT22;67903;52.108;9.358;2023-05-19T17:47:35;18.70;42.30
64987;DHT22;67903;52.108;9.358;2023-05-19T17:50:22;18.60;42.40
64987;DHT22;67903;52.108;9.358;2023-05-19T17:53:09;18.30;42.30
64987;DHT22;67903;52.108;9.358;2023-05-19T17:56:00;18.30;42.50
64987;DHT22;67903;52.108;9.358;2023-05-19T17:58:48;18.40;42.60
64987;DHT22;67903;52.108;9.358;2023-05-19T18:01:35;18.20;42.50
64987;DHT22;67903;52.108;9.358;2023-05-19T18:04:23;18.20;42.40
64987;DHT22;67903;52.108;9.358;2023-05-19T18:07:12;18.10;42.60
64987;DHT22;67903;52.108;9.358;2023-05-19T18:10:00;18.10;42.80
64987;DHT22;67903;52.108;9.358;2023-05-19T18:12:47;18.00;43.10
64987;DHT22;67903;52.108;9.358;2023-05-19T18:15:35;18.00;43.60
64987;DHT22;67903;52.108;9.358;2023-05-19T18:18:22;17.90;43.60